Time;durP1;ratioP1;P1;durP2;ratioP2;P2;SDS_P1;SDS_P2;PMS_P1;PMS_P2;Temp;Humidity;BMP_temperature;BMP_pressure;BME280_temperature;BME280_humidity;BME280_pressure;Samples;Min_cycle;Max_cycle;Signal;HPM_P1;HPM_P2
2023/01/09 00:00:36;;;;;;;15.07;7.43;;;;;;;;;;5059484;28;20066;-83
2023/01/09 00:03:01;;;;;;;11.45;6.93;;;;;;;;;;5059293;28;20064;-81
2023/01/09 00:05:26;;;;;;;13.47;7.37;;;;;;;;;;5058688;28;20025;-81
2023/01/09 00:07:52;;;;;;;12.63;7.35;;;;;;;;;;5059538;28;20262;-82
2023/01/09 00:10:17;;;;;;;14.68;7.78;;;;;;;;;;5059581;28;20121;-82
2023/01/09 00:12:42;;;;;;;15.00;8.38;;;;;;;;;;5059840;28;20032;-80
2023/01/09 00:15:09;;;;;;;15.73;8.25;;;;;;;;;;5058425;28;20505;-82
2023/01/09 00:17:34;;;;;;;17.63;8.38;;;;;;;;;;5041016;28;20044;-81
2023/01/09 00:19:59;;;;;;;15.38;8.23;;;;;;;;;;5058842;28;20035;-82
2023/01/09 00:22:24;;;;;;;7.85;4.53;;;;;;;;;;5059063;28;20032;-82
2023/01/09 00:24:50;;;;;;;19.00;9.13;;;;;;;;;;5058527;28;20017;-81
2023/01/09 00:27:15;;;;;;;12.73;6.57;;;;;;;;;;5059665;28;20044;-82
2023/01/09 00:29:41;;;;;;;16.88;8.70;;;;;;;;;;5058727;28;20270;-81
2023/01/09 00:32:09;;;;;;;19.25;9.27;;;;;;;;;;5058378;28;20028;-82
2023/01/09 00:34:36;;;;;;;15.65;8.38;;;;;;;;;;5058694;28;20091;-84
2023/01/09 00:37:02;;;;;;;14.30;7.32;;;;;;;;;;5058426;28;20033;-83
2023/01/09 00:39:28;;;;;;;18.02;9.20;;;;;;;;;;5040871;28;20470;-81
2023/01/09 00:41:55;;;;;;;18.30;9.02;;;;;;;;;;5058723;28;20024;-81
2023/01/09 00:44:30;;;;;;;16.40;8.15;;;;;;;;;;5058591;28;20088;-81
2023/01/09 00:47:09;;;;;;;16.25;8.00;;;;;;;;;;5057845;28;20478;-82
2023/01/09 00:49:36;;;;;;;10.93;5.97;;;;;;;;;;5057986;28;20028;-81
2023/01/09 00:52:03;;;;;;;19.88;9.27;;;;;;;;;;5058646;28;20131;-81
2023/01/09 00:54:29;;;;;;;16.92;8.27;;;;;;;;;;5058877;28;20363;-82
2023/01/09 00:56:55;;;;;;;16.65;8.25;;;;;;;;;;5040562;28;20036;-82
2023/01/09 00:59:20;;;;;;;16.10;8.27;;;;;;;;;;5057534;28;20139;-84
2023/01/09 01:01:46;;;;;;;10.80;5.10;;;;;;;;;;5058768;28;20021;-83
2023/01/09 01:09:39;;;;;;;18.42;8.65;;;;;;;;;;5057985;28;20055;-81
2023/01/09 01:12:05;;;;;;;15.23;7.05;;;;;;;;;;5057602;28;20021;-82
2023/01/09 01:14:34;;;;;;;13.73;7.50;;;;;;;;;;5057051;28;20017;-83
2023/01/09 01:16:59;;;;;;;19.45;8.65;;;;;;;;;;5058210;28;20500;-82
2023/01/09 01:19:25;;;;;;;11.32;6.25;;;;;;;;;;5056924;28;20045;-84
2023/01/09 01:21:50;;;;;;;17.75;8.77;;;;;;;;;;5058356;28;20025;-82
2023/01/09 01:24:18;;;;;;;15.60;8.38;;;;;;;;;;5058012;28;20016;-82
2023/01/09 01:26:46;;;;;;;20.35;8.82;;;;;;;;;;5056677;28;20025;-83
2023/01/09 01:29:12;;;;;;;15.82;8.07;;;;;;;;;;5057510;28;20029;-83
2023/01/09 01:31:37;;;;;;;12.50;7.05;;;;;;;;;;5057352;28;20017;-82
2023/01/09 01:34:02;;;;;;;11.63;5.85;;;;;;;;;;5058292;28;20166;-82
2023/01/09 01:36:27;;;;;;;14.82;7.28;;;;;;;;;;5057732;28;20041;-83
2023/01/09 01:38:53;;;;;;;14.02;6.13;;;;;;;;;;5058008;28;20025;-81
2023/01/09 01:41:28;;;;;;;19.30;8.43;;;;;;;;;;5058087;28;20075;-82
2023/01/09 01:43:59;;;;;;;15.35;7.47;;;;;;;;;;5057831;28;20273;-80
2023/01/09 01:46:25;;;;;;;13.02;7.22;;;;;;;;;;5057471;28;20029;-82
2023/01/09 01:49:12;;;;;;;17.50;7.28;;;;;;;;;;5057542;28;20029;-82
2023/01/09 01:51:43;;;;;;;14.70;6.43;;;;;;;;;;5057669;28;20037;-80
2023/01/09 01:54:16;;;;;;;20.45;8.25;;;;;;;;;;5057595;28;20025;-82
2023/01/09 01:56:45;;;;;;;15.10;8.25;;;;;;;;;;5057603;28;20039;-80
2023/01/09 01:59:24;;;;;;;15.32;8.48;;;;;;;;;;5057771;28;20044;-81
2023/01/09 02:01:56;;;;;;;13.40;7.28;;;;;;;;;;5056819;28;20035;-82
2023/01/09 02:04:22;;;;;;;14.23;7.53;;;;;;;;;;5057359;28;20036;-83
2023/01/09 02:06:51;;;;;;;14.15;7.72;;;;;;;;;;5057352;28;20021;-82
2023/01/09 02:09:21;;;;;;;14.85;7.43;;;;;;;;;;5057728;28;20478;-81
2023/01/09 02:11:51;;;;;;;15.32;7.28;;;;;;;;;;5057138;28;20406;-82
2023/01/09 02:14:18;;;;;;;16.58;7.50;;;;;;;;;;5057190;28;20485;-81
2023/01/09 02:16:53;;;;;;;13.60;7.53;;;;;;;;;;5056204;28;20029;-82
2023/01/09 02:19:56;;;;;;;15.05;7.97;;;;;;;;;;5056497;28;20040;-82
2023/01/09 02:22:57;;;;;;;12.20;6.30;;;;;;;;;;5038345;28;20029;-81
2023/01/09 02:25:37;;;;;;;15.82;7.78;;;;;;;;;;5029950;28;20040;-83
2023/01/09 02:28:43;;;;;;;14.57;6.78;;;;;;;;;;5057152;28;20025;-81
2023/01/09 02:31:20;;;;;;;13.57;7.47;;;;;;;;;;5057297;28;20029;-82
2023/01/09 02:34:11;;;;;;;15.35;7.82;;;;;;;;;;5057842;28;20036;-82
2023/01/09 02:36:55;;;;;;;15.98;8.07;;;;;;;;;;5056921;28;20037;-83
2023/01/09 02:39:49;;;;;;;15.00;7.30;;;;;;;;;;5056678;28;20025;-83
2023/01/09 02:42:18;;;;;;;15.52;8.20;;;;;;;;;;5056647;28;20465;-82
2023/01/09 02:44:44;;;;;;;15.60;7.90;;;;;;;;;;5057616;28;20071;-82
2023/01/09 02:47:15;;;;;;;15.00;7.45;;;;;;;;;;5057428;28;20490;-83
2023/01/09 02:49:45;;;;;;;16.85;8.57;;;;;;;;;;5056645;28;20071;-82
2023/01/09 02:52:23;;;;;;;13.82;7.50;;;;;;;;;;5057191;28;20021;-82
2023/01/09 02:54:54;;;;;;;15.85;8.02;;;;;;;;;;5057702;28;20043;-82
2023/01/09 02:57:37;;;;;;;15.57;8.30;;;;;;;;;;5057482;28;20044;-80
2023/01/09 03:00:23;;;;;;;17.15;8.30;;;;;;;;;;5057162;28;20162;-81
2023/01/09 03:02:56;;;;;;;19.65;9.05;;;;;;;;;;5057617;28;20064;-81
2023/01/09 03:05:30;;;;;;;9.20;5.30;;;;;;;;;;5039481;28;20032;-83
2023/01/09 03:08:03;;;;;;;18.88;9.02;;;;;;;;;;5057647;28;20128;-82
2023/01/09 03:10:40;;;;;;;14.75;8.32;;;;;;;;;;5059413;28;20048;-82
2023/01/09 03:13:10;;;;;;;13.02;7.25;;;;;;;;;;5061300;28;20053;-83
2023/01/09 03:15:38;;;;;;;15.63;8.55;;;;;;;;;;5061645;28;20497;-81
2023/01/09 03:18:05;;;;;;;16.85;8.32;;;;;;;;;;5061514;28;20029;-82
2023/01/09 03:20:31;;;;;;;18.08;9.25;;;;;;;;;;5060581;28;20394;-82
2023/01/09 03:22:59;;;;;;;22.40;9.20;;;;;;;;;;5059348;28;20029;-81
2023/01/09 03:25:27;;;;;;;15.70;8.05;;;;;;;;;;5061105;28;20021;-83
2023/01/09 03:28:02;;;;;;;16.55;8.07;;;;;;;;;;5060699;28;20025;-81
2023/01/09 03:30:29;;;;;;;18.45;8.45;;;;;;;;;;5060477;28;20017;-83
2023/01/09 03:32:55;;;;;;;18.05;8.57;;;;;;;;;;5060986;28;20426;-83
2023/01/09 03:35:21;;;;;;;16.08;8.30;;;;;;;;;;5060275;28;20436;-81
2023/01/09 03:37:46;;;;;;;14.85;7.82;;;;;;;;;;5061044;28;20055;-82
2023/01/09 03:40:11;;;;;;;15.90;7.38;;;;;;;;;;5060461;28;20070;-81
2023/01/09 03:42:37;;;;;;;14.10;7.32;;;;;;;;;;5060530;28;20033;-82
2023/01/09 03:45:03;;;;;;;14.95;7.30;;;;;;;;;;5060326;28;20024;-82
2023/01/09 03:47:29;;;;;;;14.23;7.63;;;;;;;;;;5060517;28;20032;-83
2023/01/09 03:49:54;;;;;;;13.13;6.00;;;;;;;;;;5060234;28;20029;-82
2023/01/09 03:52:19;;;;;;;11.90;6.10;;;;;;;;;;5060370;28;20037;-82
2023/01/09 03:54:44;;;;;;;18.90;8.38;;;;;;;;;;5059599;28;20281;-80
2023/01/09 03:57:10;;;;;;;15.43;8.00;;;;;;;;;;5058465;28;20020;-82
2023/01/09 03:59:35;;;;;;;17.55;8.68;;;;;;;;;;5058372;28;20254;-82
2023/01/09 04:02:00;;;;;;;15.73;6.82;;;;;;;;;;5060091;28;20052;-83
2023/01/09 04:04:25;;;;;;;13.88;6.85;;;;;;;;;;5041551;28;20029;-83
2023/01/09 04:06:51;;;;;;;16.15;7.25;;;;;;;;;;5058206;28;20078;-82
2023/01/09 04:09:16;;;;;;;16.75;8.10;;;;;;;;;;5059059;28;20035;-83
2023/01/09 04:11:41;;;;;;;14.93;7.47;;;;;;;;;;5059588;28;20036;-83
2023/01/09 04:14:06;;;;;;;15.00;8.07;;;;;;;;;;5059089;28;20254;-81
2023/01/09 04:16:31;;;;;;;13.90;7.50;;;;;;;;;;5059277;28;20258;-81
2023/01/09 04:18:57;;;;;;;13.52;8.38;;;;;;;;;;5059435;28;20107;-82
2023/01/09 04:21:22;;;;;;;16.20;8.03;;;;;;;;;;5058221;28;20063;-82
2023/01/09 04:23:47;;;;;;;14.87;7.87;;;;;;;;;;5058853;28;20258;-81
2023/01/09 04:26:12;;;;;;;12.73;7.33;;;;;;;;;;5058853;28;20250;-81
2023/01/09 04:28:37;;;;;;;18.35;8.43;;;;;;;;;;5058470;28;20304;-82
2023/01/09 04:31:04;;;;;;;15.13;8.35;;;;;;;;;;5058976;28;20478;-83
2023/01/09 04:33:29;;;;;;;18.10;7.97;;;;;;;;;;5057285;28;20052;-82
2023/01/09 04:35:54;;;;;;;18.33;8.65;;;;;;;;;;5058745;28;20028;-81
2023/01/09 04:38:19;;;;;;;17.40;8.70;;;;;;;;;;5058066;28;20024;-81
2023/01/09 04:40:48;;;;;;;16.03;7.93;;;;;;;;;;5060530;28;20257;-81
2023/01/09 04:43:14;;;;;;;15.43;8.50;;;;;;;;;;5059649;28;20257;-81
2023/01/09 04:45:39;;;;;;;19.27;9.02;;;;;;;;;;5059562;28;20025;-81
2023/01/09 04:48:05;;;;;;;18.77;9.27;;;;;;;;;;5059795;28;20115;-81
2023/01/09 04:50:30;;;;;;;18.70;8.98;;;;;;;;;;5059241;28;20064;-82
2023/01/09 04:52:56;;;;;;;14.47;8.63;;;;;;;;;;5060139;28;20025;-82
2023/01/09 04:55:21;;;;;;;16.75;8.75;;;;;;;;;;5058969;28;20662;-81
2023/01/09 04:57:47;;;;;;;16.05;8.70;;;;;;;;;;5059553;28;20027;-81
2023/01/09 05:00:13;;;;;;;15.63;8.40;;;;;;;;;;5059568;28;20025;-82
2023/01/09 05:02:39;;;;;;;10.65;5.88;;;;;;;;;;5059895;28;20208;-82
2023/01/09 05:05:06;;;;;;;16.42;8.18;;;;;;;;;;5059033;28;20025;-83
2023/01/09 05:07:31;;;;;;;16.02;7.78;;;;;;;;;;5058892;28;20394;-82
2023/01/09 05:09:56;;;;;;;13.70;7.07;;;;;;;;;;5058845;28;20035;-82
2023/01/09 05:12:21;;;;;;;14.05;7.53;;;;;;;;;;5057423;28;20017;-82
2023/01/09 05:14:47;;;;;;;13.07;6.88;;;;;;;;;;5058651;28;20045;-82
2023/01/09 05:17:12;;;;;;;15.93;6.90;;;;;;;;;;5059003;28;20104;-83
2023/01/09 05:19:38;;;;;;;15.00;7.35;;;;;;;;;;5057797;28;20377;-82
2023/01/09 05:22:03;;;;;;;13.75;7.10;;;;;;;;;;5057175;28;20119;-82
2023/01/09 05:24:28;;;;;;;13.82;7.68;;;;;;;;;;5040000;28;20036;-81
2023/01/09 05:26:54;;;;;;;14.55;7.05;;;;;;;;;;5058082;28;20021;-82
2023/01/09 05:29:19;;;;;;;14.80;7.47;;;;;;;;;;5058156;28;20055;-82
2023/01/09 05:31:44;;;;;;;12.75;7.00;;;;;;;;;;5058542;28;20029;-83
2023/01/09 05:34:09;;;;;;;12.32;5.97;;;;;;;;;;5058043;28;20031;-84
2023/01/09 05:36:35;;;;;;;17.50;8.05;;;;;;;;;;5058067;28;20028;-82
2023/01/09 05:39:02;;;;;;;18.40;7.80;;;;;;;;;;5057830;28;20071;-82
2023/01/09 05:41:28;;;;;;;15.68;8.20;;;;;;;;;;5058130;28;20025;-81
2023/01/09 05:43:53;;;;;;;16.90;8.15;;;;;;;;;;5058602;28;20021;-83
2023/01/09 05:46:18;;;;;;;16.27;8.07;;;;;;;;;;5058528;28;20020;-81
2023/01/09 05:48:44;;;;;;;18.75;8.48;;;;;;;;;;5058179;28;20506;-82
2023/01/09 05:51:10;;;;;;;13.27;7.50;;;;;;;;;;5056636;28;20025;-82
2023/01/09 05:53:35;;;;;;;15.93;7.90;;;;;;;;;;5057930;28;20017;-83
2023/01/09 05:56:00;;;;;;;16.20;8.57;;;;;;;;;;5057876;28;20131;-82
2023/01/09 05:58:26;;;;;;;15.52;7.63;;;;;;;;;;5057864;28;20016;-81
2023/01/09 06:00:52;;;;;;;15.18;7.88;;;;;;;;;;5058772;28;20109;-81
2023/01/09 06:03:17;;;;;;;13.90;7.25;;;;;;;;;;5039759;28;20386;-82
2023/01/09 06:05:43;;;;;;;14.13;5.88;;;;;;;;;;5057263;28;20032;-83
2023/01/09 06:08:08;;;;;;;13.38;7.10;;;;;;;;;;5058297;28;20367;-82
2023/01/09 06:10:33;;;;;;;15.00;7.00;;;;;;;;;;5058695;28;20104;-83
2023/01/09 06:12:58;;;;;;;12.47;6.27;;;;;;;;;;5056511;28;20021;-82
2023/01/09 06:15:24;;;;;;;13.48;6.82;;;;;;;;;;5056843;28;20278;-82
2023/01/09 06:17:49;;;;;;;14.33;8.00;;;;;;;;;;5055603;28;20032;-82
2023/01/09 06:20:15;;;;;;;14.20;7.32;;;;;;;;;;5056450;28;20254;-81
2023/01/09 06:22:43;;;;;;;16.90;7.60;;;;;;;;;;5037277;28;20040;-81
2023/01/09 06:25:08;;;;;;;12.20;7.20;;;;;;;;;;5056906;28;20012;-81
2023/01/09 06:27:34;;;;;;;13.85;7.75;;;;;;;;;;5056698;28;20054;-82
2023/01/09 06:29:59;;;;;;;17.08;7.70;;;;;;;;;;5056743;28;20097;-82
2023/01/09 06:32:24;;;;;;;14.20;7.37;;;;;;;;;;5056324;28;20390;-82
2023/01/09 06:34:49;;;;;;;17.23;8.50;;;;;;;;;;5056112;28;20829;-82
2023/01/09 06:37:14;;;;;;;15.32;8.05;;;;;;;;;;5055747;28;20743;-83
2023/01/09 06:39:40;;;;;;;14.60;8.25;;;;;;;;;;5054919;28;20398;-81
2023/01/09 06:42:05;;;;;;;14.88;7.60;;;;;;;;;;5054102;28;20394;-82
2023/01/09 06:44:31;;;;;;;13.25;7.15;;;;;;;;;;5054559;28;20051;-83
2023/01/09 06:46:57;;;;;;;14.55;6.82;;;;;;;;;;5040126;28;20031;-82
2023/01/09 06:49:23;;;;;;;14.05;7.68;;;;;;;;;;5058026;28;20021;-80
2023/01/09 06:51:50;;;;;;;13.80;7.75;;;;;;;;;;5058062;28;20025;-81
2023/01/09 06:54:19;;;;;;;15.18;6.97;;;;;;;;;;5058540;28;20044;-82
2023/01/09 06:56:44;;;;;;;13.18;7.40;;;;;;;;;;5059275;28;20074;-81
2023/01/09 06:59:10;;;;;;;13.32;6.68;;;;;;;;;;5059401;28;20032;-81
2023/01/09 07:01:35;;;;;;;12.20;6.60;;;;;;;;;;5059494;28;20045;-81
2023/01/09 07:04:00;;;;;;;14.00;7.28;;;;;;;;;;5040735;28;20037;-84
2023/01/09 07:06:26;;;;;;;13.45;6.93;;;;;;;;;;5059390;28;20040;-80
2023/01/09 07:08:51;;;;;;;13.40;7.10;;;;;;;;;;5059430;28;20128;-81
2023/01/09 07:11:16;;;;;;;11.50;6.78;;;;;;;;;;5059033;28;20433;-83
2023/01/09 07:13:41;;;;;;;12.88;7.53;;;;;;;;;;5059496;28;20125;-82
2023/01/09 07:16:07;;;;;;;12.90;7.45;;;;;;;;;;5059186;28;20429;-82
2023/01/09 07:18:32;;;;;;;13.70;6.88;;;;;;;;;;5059830;28;20098;-82
2023/01/09 07:20:57;;;;;;;12.52;7.10;;;;;;;;;;5059383;28;20108;-82
2023/01/09 07:23:22;;;;;;;10.18;5.55;;;;;;;;;;5059882;28;20029;-82
2023/01/09 07:25:50;;;;;;;14.00;6.72;;;;;;;;;;5060108;28;20028;-83
2023/01/09 07:28:15;;;;;;;12.35;6.55;;;;;;;;;;5059495;28;20482;-82
2023/01/09 07:30:40;;;;;;;15.77;7.22;;;;;;;;;;5058968;28;20032;-82
2023/01/09 07:33:05;;;;;;;12.60;6.50;;;;;;;;;;5058971;28;20044;-82
2023/01/09 07:35:31;;;;;;;14.13;7.28;;;;;;;;;;5041161;28;20389;-83
2023/01/09 07:37:56;;;;;;;11.80;7.07;;;;;;;;;;5058293;28;20033;-80
2023/01/09 07:40:21;;;;;;;14.23;7.20;;;;;;;;;;5040768;28;20167;-82
2023/01/09 07:42:47;;;;;;;13.20;6.63;;;;;;;;;;5059075;28;20031;-82
2023/01/09 07:45:12;;;;;;;13.32;7.50;;;;;;;;;;5060321;28;20024;-80
2023/01/09 07:47:39;;;;;;;15.30;7.50;;;;;;;;;;5059015;28;20029;-81
2023/01/09 07:50:05;;;;;;;15.55;7.32;;;;;;;;;;5059205;28;20029;-79
2023/01/09 07:52:30;;;;;;;14.35;7.28;;;;;;;;;;5040831;28;20025;-82
2023/01/09 07:54:56;;;;;;;14.52;6.63;;;;;;;;;;5040857;28;20409;-83
2023/01/09 07:57:21;;;;;;;13.25;6.85;;;;;;;;;;5058964;28;20482;-81
2023/01/09 07:59:46;;;;;;;15.30;7.78;;;;;;;;;;5059327;28;20098;-80
2023/01/09 08:02:11;;;;;;;13.25;7.03;;;;;;;;;;5058936;28;20033;-82
2023/01/09 08:04:36;;;;;;;12.30;7.07;;;;;;;;;;5057403;28;20024;-81
2023/01/09 08:07:02;;;;;;;11.52;6.55;;;;;;;;;;5059028;28;20478;-81
2023/01/09 08:09:28;;;;;;;12.30;6.57;;;;;;;;;;5058691;28;20036;-82
2023/01/09 08:11:53;;;;;;;11.68;6.55;;;;;;;;;;5058971;28;20028;-81
2023/01/09 08:14:18;;;;;;;11.80;5.53;;;;;;;;;;5059174;28;20021;-82
2023/01/09 08:16:43;;;;;;;10.88;6.15;;;;;;;;;;5059577;28;20250;-81
2023/01/09 08:19:10;;;;;;;11.63;6.32;;;;;;;;;;5058729;28;20390;-81
2023/01/09 08:21:36;;;;;;;10.93;6.07;;;;;;;;;;5057309;28;20021;-81
2023/01/09 08:24:01;;;;;;;12.43;6.32;;;;;;;;;;5058758;28;20029;-82
2023/01/09 08:26:26;;;;;;;10.23;6.10;;;;;;;;;;5058966;28;20021;-82
2023/01/09 08:28:51;;;;;;;13.30;6.40;;;;;;;;;;5059117;28;20048;-81
2023/01/09 08:31:17;;;;;;;12.43;5.97;;;;;;;;;;5040658;28;20254;-82
2023/01/09 08:33:42;;;;;;;11.77;6.18;;;;;;;;;;5058977;28;20050;-81
2023/01/09 08:36:08;;;;;;;11.00;5.85;;;;;;;;;;5058118;28;20028;-81
2023/01/09 08:38:33;;;;;;;12.13;6.10;;;;;;;;;;5040156;28;20017;-81
2023/01/09 08:47:04;;;;;;;4.90;3.17;;;;;;;;;;5040337;28;20509;-82
2023/01/09 08:49:11;;;;;;;11.30;5.20;;;;;;;;;;5058710;28;20040;-83
2023/01/09 08:51:36;;;;;;;7.93;5.05;;;;;;;;;;5058223;28;20025;-82
2023/01/09 08:54:02;;;;;;;7.95;4.88;;;;;;;;;;5056985;28;20417;-82
2023/01/09 08:56:27;;;;;;;8.68;4.80;;;;;;;;;;5057801;28;20371;-81
2023/01/09 08:58:52;;;;;;;8.63;5.03;;;;;;;;;;5057964;28;20051;-83
2023/01/09 09:01:17;;;;;;;9.70;5.32;;;;;;;;;;5057794;28;20048;-83
2023/01/09 09:03:43;;;;;;;10.10;5.47;;;;;;;;;;5039743;28;20032;-82
2023/01/09 09:06:08;;;;;;;9.40;4.60;;;;;;;;;;5039722;28;20255;-83
2023/01/09 09:08:33;;;;;;;10.68;5.28;;;;;;;;;;5058314;28;20269;-83
2023/01/09 09:11:00;;;;;;;9.02;4.65;;;;;;;;;;5041791;28;20147;-84
2023/01/09 09:13:25;;;;;;;9.75;4.95;;;;;;;;;;5059176;28;20393;-82
2023/01/09 09:15:50;;;;;;;7.20;3.85;;;;;;;;;;5059363;28;20025;-83
2023/01/09 09:18:15;;;;;;;7.47;4.70;;;;;;;;;;5060096;28;20028;-82
2023/01/09 09:20:41;;;;;;;6.20;3.90;;;;;;;;;;5059636;28;20333;-83
2023/01/09 09:23:07;;;;;;;8.98;4.45;;;;;;;;;;5059486;28;20674;-83
2023/01/09 09:25:32;;;;;;;8.02;4.72;;;;;;;;;;5059706;28;20025;-84
2023/01/09 09:27:59;;;;;;;10.20;5.18;;;;;;;;;;5059379;28;20021;-83
2023/01/09 09:30:25;;;;;;;10.70;5.30;;;;;;;;;;5058484;28;20458;-83
2023/01/09 09:32:50;;;;;;;12.90;5.28;;;;;;;;;;5040032;28;20040;-84
2023/01/09 09:35:22;;;;;;;10.10;5.13;;;;;;;;;;5058062;28;20028;-82
2023/01/09 09:37:56;;;;;;;7.43;4.28;;;;;;;;;;5040707;28;20025;-83
2023/01/09 09:40:31;;;;;;;7.25;3.90;;;;;;;;;;5058433;28;20032;-83
2023/01/09 09:46:39;;;;;;;7.07;3.75;;;;;;;;;;5058633;28;20075;-83
2023/01/09 09:49:09;;;;;;;9.52;3.50;;;;;;;;;;5058019;28;20017;-82
2023/01/09 09:52:03;;;;;;;4.63;2.42;;;;;;;;;;5039742;28;20143;-83
2023/01/09 09:54:32;;;;;;;2.72;1.70;;;;;;;;;;5057996;28;20025;-81
2023/01/09 09:57:01;;;;;;;2.85;1.55;;;;;;;;;;5057977;28;20028;-82
2023/01/09 09:59:31;;;;;;;2.42;1.50;;;;;;;;;;5057769;28;20031;-82
2023/01/09 10:02:08;;;;;;;1.90;1.48;;;;;;;;;;5058368;28;20036;-83
2023/01/09 10:04:39;;;;;;;2.03;1.27;;;;;;;;;;5040153;28;20386;-84
2023/01/09 10:07:11;;;;;;;1.63;1.20;;;;;;;;;;5057958;28;20079;-83
2023/01/09 10:09:59;;;;;;;1.50;1.30;;;;;;;;;;5058202;28;20472;-82
2023/01/09 10:12:30;;;;;;;2.33;1.17;;;;;;;;;;5057663;28;20097;-83
2023/01/09 10:14:58;;;;;;;2.72;1.40;;;;;;;;;;5039638;28;20080;-84
2023/01/09 10:17:44;;;;;;;1.85;1.20;;;;;;;;;;5060051;28;20025;-84
2023/01/09 10:20:32;;;;;;;1.67;1.30;;;;;;;;;;5062146;28;20021;-83
2023/01/09 10:23:06;;;;;;;2.30;1.35;;;;;;;;;;5061774;28;20048;-83
2023/01/09 10:25:43;;;;;;;2.78;1.40;;;;;;;;;;5044694;28;20393;-84
2023/01/09 10:28:49;;;;;;;2.03;1.50;;;;;;;;;;5061782;28;20025;-83
2023/01/09 10:31:51;;;;;;;1.45;1.10;;;;;;;;;;5062401;28;20423;-83
2023/01/09 10:34:44;;;;;;;2.90;1.08;;;;;;;;;;5042019;28;20070;-83
2023/01/09 10:37:20;;;;;;;2.08;1.20;;;;;;;;;;5043765;28;20020;-83
2023/01/09 10:40:01;;;;;;;1.77;0.95;;;;;;;;;;5061225;28;20055;-82
2023/01/09 10:42:41;;;;;;;1.08;0.90;;;;;;;;;;5061543;28;20078;-83
2023/01/09 10:45:16;;;;;;;1.25;1.00;;;;;;;;;;5062137;28;20024;-85
2023/01/09 10:47:43;;;;;;;2.80;1.13;;;;;;;;;;5062010;28;20017;-83
2023/01/09 10:50:23;;;;;;;4.57;1.30;;;;;;;;;;5061732;28;20021;-84
2023/01/09 10:52:50;;;;;;;1.80;1.10;;;;;;;;;;5061090;28;20032;-84
2023/01/09 10:55:22;;;;;;;1.67;1.05;;;;;;;;;;5043066;28;20032;-83
2023/01/09 10:57:52;;;;;;;1.20;0.90;;;;;;;;;;5061325;28;20398;-84
2023/01/09 11:00:22;;;;;;;1.55;1.00;;;;;;;;;;5060568;28;20386;-83
2023/01/09 11:02:48;;;;;;;1.52;1.05;;;;;;;;;;5061221;28;20025;-84
2023/01/09 11:05:19;;;;;;;1.67;1.10;;;;;;;;;;5061184;28;20028;-84
2023/01/09 11:07:49;;;;;;;1.33;0.80;;;;;;;;;;5061758;28;20029;-84
2023/01/09 11:10:15;;;;;;;2.47;1.00;;;;;;;;;;5061144;28;20025;-84
2023/01/09 11:12:41;;;;;;;4.68;0.82;;;;;;;;;;5060793;28;20087;-83
2023/01/09 11:15:15;;;;;;;2.58;1.30;;;;;;;;;;5043197;28;20504;-83
2023/01/09 11:17:42;;;;;;;3.25;1.27;;;;;;;;;;5060959;28;20021;-83
2023/01/09 11:20:28;;;;;;;0.93;0.90;;;;;;;;;;5061989;28;20048;-84
2023/01/09 11:22:56;;;;;;;1.65;1.10;;;;;;;;;;5060873;28;20029;-84
2023/01/09 11:25:26;;;;;;;1.70;1.20;;;;;;;;;;5060693;28;20025;-83
2023/01/09 11:28:01;;;;;;;1.45;0.88;;;;;;;;;;5061241;28;20052;-82
2023/01/09 11:30:30;;;;;;;1.02;0.80;;;;;;;;;;5060721;28;20029;-82
2023/01/09 11:32:56;;;;;;;2.25;0.98;;;;;;;;;;5060783;28;20025;-83
2023/01/09 11:35:30;;;;;;;0.75;0.63;;;;;;;;;;5060976;28;20017;-83
2023/01/09 11:38:25;;;;;;;0.40;0.38;;;;;;;;;;5061030;28;20080;-85
2023/01/09 11:40:57;;;;;;;0.85;0.77;;;;;;;;;;5026982;28;20441;-83
2023/01/09 11:43:38;;;;;;;1.55;0.90;;;;;;;;;;5044604;28;20387;-84
2023/01/09 11:46:05;;;;;;;3.13;0.70;;;;;;;;;;5061125;28;20060;-85
2023/01/09 11:48:55;;;;;;;0.80;0.70;;;;;;;;;;5043540;28;20398;-84
2023/01/09 11:51:24;;;;;;;1.35;0.70;;;;;;;;;;5061563;28;20040;-83
2023/01/09 11:54:09;;;;;;;1.65;0.65;;;;;;;;;;5061201;28;20024;-83
2023/01/09 11:56:36;;;;;;;0.88;0.80;;;;;;;;;;5061059;28;20115;-84
2023/01/09 11:59:01;;;;;;;0.50;0.50;;;;;;;;;;5061581;28;20021;-86
2023/01/09 12:01:49;;;;;;;1.13;0.52;;;;;;;;;;5060830;28;20485;-84
2023/01/09 12:04:35;;;;;;;1.63;0.60;;;;;;;;;;5059971;28;20049;-84
2023/01/09 12:07:35;;;;;;;2.35;0.60;;;;;;;;;;5042708;28;20036;-83
2023/01/09 12:10:38;;;;;;;0.45;0.32;;;;;;;;;;5061032;28;20025;-83
2023/01/09 12:13:48;;;;;;;0.30;0.30;;;;;;;;;;5060279;28;20393;-84
2023/01/09 12:16:25;;;;;;;0.50;0.47;;;;;;;;;;5060808;28;20025;-84
2023/01/09 12:18:56;;;;;;;1.50;0.40;;;;;;;;;;5061018;28;20071;-85
2023/01/09 12:21:42;;;;;;;1.70;0.45;;;;;;;;;;5061047;28;20486;-83
2023/01/09 12:24:20;;;;;;;1.27;0.70;;;;;;;;;;5060945;28;20029;-84
2023/01/09 12:27:04;;;;;;;1.08;0.60;;;;;;;;;;5042716;28;20021;-83
2023/01/09 12:29:54;;;;;;;0.60;0.50;;;;;;;;;;5060320;28;20024;-84
2023/01/09 12:32:38;;;;;;;1.08;0.60;;;;;;;;;;5042294;28;20033;-84
2023/01/09 12:35:22;;;;;;;1.13;0.45;;;;;;;;;;5061100;28;20413;-85
2023/01/09 12:38:24;;;;;;;0.85;0.50;;;;;;;;;;5059791;28;20033;-84
2023/01/09 12:41:23;;;;;;;0.75;0.40;;;;;;;;;;5060799;28;20044;-84
2023/01/09 12:44:10;;;;;;;0.73;0.60;;;;;;;;;;5042220;28;20021;-84
2023/01/09 12:46:53;;;;;;;1.45;0.60;;;;;;;;;;5059910;28;20052;-83
2023/01/09 12:49:33;;;;;;;1.65;0.70;;;;;;;;;;5060560;28;20029;-83
2023/01/09 12:52:16;;;;;;;0.95;0.50;;;;;;;;;;5059930;28;20462;-83
2023/01/09 12:54:41;;;;;;;0.30;0.30;;;;;;;;;;5057574;28;20052;-83
2023/01/09 12:57:17;;;;;;;1.33;0.80;;;;;;;;;;5041117;28;20021;-84
2023/01/09 12:59:52;;;;;;;0.60;0.40;;;;;;;;;;5059303;28;20100;-84
2023/01/09 13:02:37;;;;;;;1.08;0.40;;;;;;;;;;5059183;28;20035;-84
2023/01/09 13:05:14;;;;;;;0.98;0.40;;;;;;;;;;5058611;28;20029;-83
2023/01/09 13:08:00;;;;;;;1.30;0.68;;;;;;;;;;5042630;28;20115;-82
2023/01/09 13:10:29;;;;;;;0.57;0.40;;;;;;;;;;5057099;28;20091;-83
2023/01/09 13:12:57;;;;;;;0.60;0.40;;;;;;;;;;5057623;28;20397;-83
2023/01/09 13:15:34;;;;;;;1.60;0.70;;;;;;;;;;5058246;28;20438;-83
2023/01/09 13:18:26;;;;;;;1.55;0.75;;;;;;;;;;5058759;28;20075;-84
2023/01/09 13:20:55;;;;;;;1.80;0.68;;;;;;;;;;5040222;28;20025;-84
2023/01/09 13:23:39;;;;;;;0.85;0.60;;;;;;;;;;5058225;28;20032;-84
2023/01/09 13:26:10;;;;;;;0.70;0.40;;;;;;;;;;5058459;28;20028;-82
2023/01/09 13:28:42;;;;;;;1.25;0.52;;;;;;;;;;5058500;28;20033;-83
2023/01/09 13:31:36;;;;;;;1.85;0.57;;;;;;;;;;5059463;28;20516;-84
2023/01/09 13:34:08;;;;;;;0.55;0.55;;;;;;;;;;5058084;28;20123;-85
2023/01/09 13:36:44;;;;;;;0.88;0.50;;;;;;;;;;5058088;28;20082;-84
2023/01/09 13:39:19;;;;;;;1.90;0.60;;;;;;;;;;5058550;28;20028;-84
2023/01/09 13:44:37;;;;;;;1.75;0.60;;;;;;;;;;5059112;28;20516;-84
2023/01/09 13:47:02;;;;;;;1.23;0.60;;;;;;;;;;5058438;28;20029;-83
2023/01/09 13:49:40;;;;;;;1.65;0.70;;;;;;;;;;5057939;28;20033;-85
2023/01/09 13:52:24;;;;;;;1.48;0.50;;;;;;;;;;5058074;28;20442;-83
2023/01/09 13:54:55;;;;;;;1.27;0.60;;;;;;;;;;5057604;28;20081;-83
2023/01/09 13:57:29;;;;;;;3.78;1.02;;;;;;;;;;5058167;28;20029;-84
2023/01/09 14:00:17;;;;;;;2.42;0.80;;;;;;;;;;5058210;28;20033;-84
2023/01/09 14:02:43;;;;;;;2.00;0.80;;;;;;;;;;5057609;28;20115;-83
2023/01/09 14:05:24;;;;;;;0.80;0.55;;;;;;;;;;5058153;28;20107;-83
2023/01/09 14:08:00;;;;;;;3.38;0.63;;;;;;;;;;5039675;28;20021;-84
2023/01/09 14:10:33;;;;;;;1.42;0.88;;;;;;;;;;5058238;28;20070;-83
2023/01/09 14:12:58;;;;;;;1.47;0.70;;;;;;;;;;5057549;28;20036;-84
2023/01/09 14:15:30;;;;;;;0.43;0.32;;;;;;;;;;5056241;28;20025;-82
2023/01/09 14:18:05;;;;;;;2.33;0.98;;;;;;;;;;5058363;28;20037;-84
2023/01/09 14:20:39;;;;;;;1.65;0.55;;;;;;;;;;5057707;28;20490;-85
2023/01/09 14:23:06;;;;;;;1.13;0.70;;;;;;;;;;5057661;28;20470;-84
2023/01/09 14:25:31;;;;;;;0.88;0.50;;;;;;;;;;5057841;28;20028;-84
2023/01/09 14:27:56;;;;;;;1.92;1.00;;;;;;;;;;5058153;28;20032;-84
2023/01/09 14:30:25;;;;;;;0.80;0.80;;;;;;;;;;5039743;28;20028;-83
2023/01/09 14:33:18;;;;;;;1.52;0.60;;;;;;;;;;5057522;28;20254;-83
2023/01/09 14:35:43;;;;;;;2.05;0.65;;;;;;;;;;5058147;28;20060;-84
2023/01/09 14:38:19;;;;;;;3.33;0.98;;;;;;;;;;5058317;28;20025;-84
2023/01/09 14:41:05;;;;;;;5.30;0.95;;;;;;;;;;5060025;28;20029;-84
2023/01/09 14:43:40;;;;;;;2.88;1.48;;;;;;;;;;5058039;28;20072;-85
2023/01/09 14:46:11;;;;;;;4.10;1.52;;;;;;;;;;5058271;28;20024;-84
2023/01/09 14:48:44;;;;;;;4.50;2.10;;;;;;;;;;5058456;28;20370;-85
2023/01/09 14:51:14;;;;;;;2.75;1.30;;;;;;;;;;5058189;28;20025;-85
2023/01/09 14:53:41;;;;;;;2.33;1.20;;;;;;;;;;5058351;28;20035;-84
2023/01/09 14:56:30;;;;;;;1.85;0.80;;;;;;;;;;5057426;28;20021;-85
2023/01/09 14:59:10;;;;;;;2.30;1.10;;;;;;;;;;5057705;28;20029;-83
2023/01/09 15:01:36;;;;;;;2.42;1.02;;;;;;;;;;5057840;28;20064;-83
2023/01/09 15:04:06;;;;;;;1.17;1.00;;;;;;;;;;5059261;28;20083;-84
2023/01/09 15:06:41;;;;;;;2.53;0.98;;;;;;;;;;5042043;28;20032;-83
2023/01/09 15:09:19;;;;;;;1.98;1.10;;;;;;;;;;5062191;28;20025;-86
2023/01/09 15:11:44;;;;;;;1.45;0.85;;;;;;;;;;5060710;28;20025;-85
2023/01/09 15:14:24;;;;;;;2.45;1.10;;;;;;;;;;5060115;28;20036;-82